Time,TemperatureF,DewpointF,PressureIn,WindDirection,WindDirectionDegrees,WindSpeedMPH,WindSpeedGustMPH,Humidity,HourlyPrecipIn,Conditions,Clouds,dailyrainin,SoftwareType,DateUTC
2013-12-02 00:00:00,44.3,34.8,29.78,SW,233,0.0,0.0,69,0.00,,,0.00,Wunderground v.1.15,2013-12-02 05:00:00,
2013-12-02 00:05:00,43.5,35.4,29.78,SW,233,0.0,0.0,73,0.00,,,0.00,Wunderground v.1.15,2013-12-02 05:05:00,
2013-12-02 00:10:00,42.0,35.0,29.78,SW,233,0.0,0.0,76,0.00,,,0.00,Wunderground v.1.15,2013-12-02 05:10:00,
2013-12-02 00:20:00,40.2,34.5,29.78,SW,233,0.0,0.0,80,0.00,,,0.00,Wunderground v.1.15,2013-12-02 05:20:00,
2013-12-02 00:25:00,40.0,34.6,29.77,SW,233,0.0,1.0,81,0.00,,,0.00,Wunderground v.1.15,2013-12-02 05:25:00,
2013-12-02 00:30:00,39.9,34.5,29.78,SW,233,0.0,0.0,81,0.00,,,0.00,Wunderground v.1.15,2013-12-02 05:30:00,
2013-12-02 00:35:00,40.2,34.5,29.77,SW,233,0.0,0.0,80,0.00,,,0.00,Wunderground v.1.15,2013-12-02 05:35:00,
2013-12-02 00:40:00,40.2,34.5,29.77,SW,233,0.0,0.0,80,0.00,,,0.00,Wunderground v.1.15,2013-12-02 05:40:00,
2013-12-02 00:45:00,40.1,34.7,29.77,SW,233,0.0,0.0,81,0.00,,,0.00,Wunderground v.1.15,2013-12-02 05:45:00,
2013-12-02 00:50:00,40.0,34.6,29.77,SW,233,0.0,0.0,81,0.00,,,0.00,Wunderground v.1.15,2013-12-02 05:50:00,
2013-12-02 01:00:00,41.1,35.1,29.76,SW,233,0.0,0.0,79,0.00,,,0.00,Wunderground v.1.15,2013-12-02 06:00:00,
2013-12-02 01:10:00,42.0,35.0,29.76,SW,233,0.0,0.0,76,0.00,,,0.00,Wunderground v.1.15,2013-12-02 06:10:00,
2013-12-02 01:15:00,41.6,35.2,29.76,SW,233,0.0,0.0,78,0.00,,,0.00,Wunderground v.1.15,2013-12-02 06:15:00,
2013-12-02 01:25:00,42.4,35.7,29.75,SW,233,0.0,0.0,77,0.00,,,0.00,Wunderground v.1.15,2013-12-02 06:25:00,
2013-12-02 01:30:00,41.3,35.9,29.75,SW,233,0.0,0.0,81,0.00,,,0.00,Wunderground v.1.15,2013-12-02 06:30:00,
2013-12-02 01:40:00,41.9,34.9,29.75,SW,233,0.0,0.0,76,0.00,,,0.00,Wunderground v.1.15,2013-12-02 06:40:00,
2013-12-02 01:45:00,41.6,36.8,29.74,SW,233,0.0,0.0,83,0.00,,,0.00,Wunderground v.1.15,2013-12-02 06:45:00,
2013-12-02 01:55:00,41.3,35.3,29.74,SW,233,0.0,0.0,79,0.00,,,0.00,Wunderground v.1.15,2013-12-02 06:55:00,
2013-12-02 02:00:00,41.7,36.0,29.74,SW,233,0.0,0.0,80,0.00,,,0.00,Wunderground v.1.15,2013-12-02 07:00:00,
2013-12-02 02:10:00,42.5,35.1,29.73,SW,233,0.0,0.0,75,0.00,,,0.00,Wunderground v.1.15,2013-12-02 07:10:00,
2013-12-02 02:16:00,43.4,36.0,29.73,SW,233,0.0,0.0,75,0.00,,,0.00,Wunderground v.1.15,2013-12-02 07:16:00,
2013-12-02 02:25:00,42.8,34.4,29.73,SW,233,0.0,0.0,72,0.00,,,0.00,Wunderground v.1.15,2013-12-02 07:25:00,
2013-12-02 02:30:00,43.4,35.0,29.72,SW,233,0.0,0.0,72,0.00,,,0.00,Wunderground v.1.15,2013-12-02 07:30:00,
2013-12-02 02:35:00,42.3,36.3,29.72,SW,233,0.0,0.0,79,0.00,,,0.00,Wunderground v.1.15,2013-12-02 07:35:00,
2013-12-02 02:45:00,42.4,35.0,29.72,SW,233,0.0,0.0,75,0.00,,,0.00,Wunderground v.1.15,2013-12-02 07:45:00,
2013-12-02 02:55:00,43.5,36.4,29.72,SW,233,0.0,1.0,76,0.00,,,0.00,Wunderground v.1.15,2013-12-02 07:55:00,
2013-12-02 03:01:00,43.2,36.1,29.72,SW,233,0.0,0.0,76,0.00,,,0.00,Wunderground v.1.15,2013-12-02 08:01:00,
2013-12-02 03:10:00,41.9,36.8,29.73,SW,233,0.0,0.0,82,0.00,,,0.00,Wunderground v.1.15,2013-12-02 08:10:00,
2013-12-02 03:15:00,41.3,36.5,29.73,SW,233,0.0,0.0,83,0.00,,,0.00,Wunderground v.1.15,2013-12-02 08:15:00,
2013-12-02 03:20:00,41.8,35.8,29.73,SW,233,0.0,1.0,79,0.00,,,0.00,Wunderground v.1.15,2013-12-02 08:20:00,
2013-12-02 03:31:00,42.5,36.4,29.73,SW,233,1.0,1.0,79,0.00,,,0.00,Wunderground v.1.15,2013-12-02 08:31:00,
2013-12-02 03:40:00,42.2,37.4,29.73,SW,233,1.0,4.0,83,0.00,,,0.00,Wunderground v.1.15,2013-12-02 08:40:00,
2013-12-02 03:50:00,42.5,36.1,29.72,SW,218,3.0,3.0,78,0.00,,,0.00,Wunderground v.1.15,2013-12-02 08:50:00,
2013-12-02 04:00:00,42.8,36.1,29.72,SW,214,3.0,3.0,77,0.00,,,0.00,Wunderground v.1.15,2013-12-02 09:00:00,
2013-12-02 04:10:00,42.4,36.3,29.72,SW,214,2.0,2.0,79,0.00,,,0.00,Wunderground v.1.15,2013-12-02 09:10:00,
2013-12-02 04:15:00,42.1,37.0,29.71,SW,214,0.0,2.0,82,0.00,,,0.00,Wunderground v.1.15,2013-12-02 09:15:00,
2013-12-02 04:25:00,41.8,36.7,29.71,SW,214,0.0,0.0,82,0.00,,,0.00,Wunderground v.1.15,2013-12-02 09:25:00,
2013-12-02 04:35:00,42.2,35.5,29.71,SW,214,0.0,0.0,77,0.00,,,0.00,Wunderground v.1.15,2013-12-02 09:35:00,
2013-12-02 04:45:00,42.5,36.4,29.71,SW,214,0.0,0.0,79,0.00,,,0.00,Wunderground v.1.15,2013-12-02 09:45:00,
2013-12-02 04:55:00,43.0,35.6,29.71,SW,214,0.0,1.0,75,0.00,,,0.00,Wunderground v.1.15,2013-12-02 09:55:00,
2013-12-02 05:00:00,44.0,35.6,29.71,SW,214,0.0,0.0,72,0.00,,,0.00,Wunderground v.1.15,2013-12-02 10:00:00,
2013-12-02 05:10:00,42.6,35.9,29.72,SW,214,0.0,0.0,77,0.00,,,0.00,Wunderground v.1.15,2013-12-02 10:10:00,
2013-12-02 05:16:00,42.9,36.5,29.72,SW,214,0.0,0.0,78,0.00,,,0.00,Wunderground v.1.15,2013-12-02 10:16:00,
2013-12-02 05:25:00,42.6,37.5,29.72,SW,214,0.0,1.0,82,0.00,,,0.00,Wunderground v.1.15,2013-12-02 10:25:00,
2013-12-02 05:35:00,42.9,37.5,29.71,WSW,251,2.0,5.0,81,0.00,,,0.00,Wunderground v.1.15,2013-12-02 10:35:00,
2013-12-02 05:40:00,42.9,37.5,29.71,WSW,254,3.0,4.0,81,0.00,,,0.00,Wunderground v.1.15,2013-12-02 10:40:00,
2013-12-02 05:45:00,42.7,37.6,29.71,WSW,245,4.0,7.0,82,0.00,,,0.00,Wunderground v.1.15,2013-12-02 10:45:00,
2013-12-02 05:55:00,46.0,34.5,29.71,West,269,6.0,6.0,64,0.00,,,0.00,Wunderground v.1.15,2013-12-02 10:55:00,
2013-12-02 06:00:00,46.3,34.8,29.71,West,278,5.0,5.0,64,0.00,,,0.00,Wunderground v.1.15,2013-12-02 11:00:00,
2013-12-02 06:10:00,44.6,36.8,29.72,West,269,2.0,2.0,74,0.00,,,0.00,Wunderground v.1.15,2013-12-02 11:10:00,
2013-12-02 06:15:00,43.6,37.2,29.72,West,269,1.0,2.0,78,0.00,,,0.01,Wunderground v.1.15,2013-12-02 11:15:00,
2013-12-02 06:25:00,41.9,38.6,29.72,West,269,0.0,1.0,88,0.00,,,0.01,Wunderground v.1.15,2013-12-02 11:25:00,
2013-12-02 06:35:00,41.9,38.0,29.72,West,269,0.0,0.0,86,0.00,,,0.01,Wunderground v.1.15,2013-12-02 11:35:00,
2013-12-02 06:40:00,42.1,37.9,29.72,West,269,0.0,0.0,85,0.00,,,0.01,Wunderground v.1.15,2013-12-02 11:40:00,
2013-12-02 06:50:00,42.1,39.4,29.72,West,268,0.0,3.0,90,0.00,,,0.01,Wunderground v.1.15,2013-12-02 11:50:00,
2013-12-02 06:55:00,41.5,39.3,29.72,West,263,1.0,4.0,92,0.00,,,0.01,Wunderground v.1.15,2013-12-02 11:55:00,
2013-12-02 07:00:00,41.2,39.3,29.72,SSW,212,3.0,5.0,93,0.00,,,0.01,Wunderground v.1.15,2013-12-02 12:00:00,
2013-12-02 07:10:00,40.9,39.0,29.72,SW,214,2.0,2.0,93,0.00,,,0.01,Wunderground v.1.15,2013-12-02 12:10:00,
2013-12-02 07:15:00,40.9,39.0,29.73,SW,214,0.0,2.0,93,0.00,,,0.01,Wunderground v.1.15,2013-12-02 12:15:00,
2013-12-02 07:25:00,40.9,39.0,29.72,SW,214,0.0,0.0,93,0.00,,,0.01,Wunderground v.1.15,2013-12-02 12:25:00,
2013-12-02 07:35:00,41.1,39.2,29.72,SW,214,0.0,0.0,93,0.00,,,0.01,Wunderground v.1.15,2013-12-02 12:35:00,
2013-12-02 07:46:00,41.0,39.4,29.72,SW,214,0.0,0.0,94,0.00,,,0.01,Wunderground v.1.15,2013-12-02 12:46:00,
2013-12-02 07:55:00,41.2,39.9,29.72,SW,214,0.0,0.0,95,0.00,,,0.01,Wunderground v.1.15,2013-12-02 12:55:00,
2013-12-02 08:00:00,41.2,39.9,29.73,SW,214,0.0,0.0,95,0.00,,,0.01,Wunderground v.1.15,2013-12-02 13:00:00,
2013-12-02 08:10:00,41.1,39.8,29.72,SW,214,0.0,0.0,95,0.00,,,0.01,Wunderground v.1.15,2013-12-02 13:10:00,
2013-12-02 08:16:00,41.4,40.1,29.72,SW,214,0.0,0.0,95,0.00,,,0.01,Wunderground v.1.15,2013-12-02 13:16:00,
2013-12-02 08:25:00,41.4,40.3,29.72,SW,214,0.0,0.0,96,0.00,,,0.01,Wunderground v.1.15,2013-12-02 13:25:00,
2013-12-02 08:30:00,41.6,40.5,29.72,SW,214,0.0,0.0,96,0.00,,,0.01,Wunderground v.1.15,2013-12-02 13:30:00,
2013-12-02 08:40:00,41.9,40.8,29.72,SW,214,0.0,0.0,96,0.00,,,0.01,Wunderground v.1.15,2013-12-02 13:40:00,
2013-12-02 08:45:00,41.9,40.8,29.71,SW,214,0.0,0.0,96,0.00,,,0.01,Wunderground v.1.15,2013-12-02 13:45:00,
2013-12-02 08:55:00,42.2,41.1,29.72,SW,214,0.0,0.0,96,0.00,,,0.01,Wunderground v.1.15,2013-12-02 13:55:00,
2013-12-02 09:00:00,42.4,41.3,29.72,SW,214,0.0,0.0,96,0.00,,,0.01,Wunderground v.1.15,2013-12-02 14:00:00,
2013-12-02 09:05:00,42.5,41.4,29.72,SW,214,0.0,0.0,96,0.00,,,0.01,Wunderground v.1.15,2013-12-02 14:05:00,
2013-12-02 09:15:00,42.5,41.4,29.71,SW,214,0.0,0.0,96,0.00,,,0.01,Wunderground v.1.15,2013-12-02 14:15:00,
2013-12-02 09:25:00,43.1,42.0,29.70,SW,214,0.0,0.0,96,0.00,,,0.01,Wunderground v.1.15,2013-12-02 14:25:00,
2013-12-02 09:30:00,43.7,42.9,29.70,SW,214,0.0,0.0,97,0.00,,,0.01,Wunderground v.1.15,2013-12-02 14:30:00,
2013-12-02 09:35:00,44.0,42.9,29.70,SW,214,0.0,0.0,96,0.00,,,0.01,Wunderground v.1.15,2013-12-02 14:35:00,
2013-12-02 09:50:00,44.5,43.4,29.70,SW,214,0.0,0.0,96,0.00,,,0.01,Wunderground v.1.15,2013-12-02 14:50:00,
2013-12-02 09:55:00,44.6,43.3,29.71,SW,214,0.0,0.0,95,0.00,,,0.01,Wunderground v.1.15,2013-12-02 14:55:00,
2013-12-02 10:01:00,44.8,43.7,29.70,SW,214,0.0,0.0,96,0.00,,,0.01,Wunderground v.1.15,2013-12-02 15:01:00,
2013-12-02 10:10:00,45.0,43.9,29.70,SW,214,1.0,1.0,96,0.00,,,0.01,Wunderground v.1.15,2013-12-02 15:10:00,
2013-12-02 10:20:00,44.8,43.5,29.70,West,270,2.0,2.0,95,0.00,,,0.01,Wunderground v.1.15,2013-12-02 15:20:00,
2013-12-02 10:30:00,44.7,43.1,29.70,WSW,238,2.0,2.0,94,0.00,,,0.01,Wunderground v.1.15,2013-12-02 15:30:00,
2013-12-02 10:40:00,44.7,43.6,29.69,SW,236,2.0,2.0,96,0.00,,,0.01,Wunderground v.1.15,2013-12-02 15:40:00,
2013-12-02 10:45:00,44.9,43.8,29.69,SW,236,2.0,2.0,96,0.00,,,0.01,Wunderground v.1.15,2013-12-02 15:45:00,
2013-12-02 10:50:00,44.9,43.8,29.69,SW,236,1.0,1.0,96,0.00,,,0.01,Wunderground v.1.15,2013-12-02 15:50:00,
2013-12-02 11:00:00,45.0,43.9,29.69,SW,236,1.0,2.0,96,0.00,,,0.01,Wunderground v.1.15,2013-12-02 16:00:00,
2013-12-02 11:05:00,45.1,43.8,29.69,SW,236,2.0,2.0,95,0.00,,,0.01,Wunderground v.1.15,2013-12-02 16:05:00,
2013-12-02 11:15:00,45.2,44.1,29.69,SW,236,2.0,3.0,96,0.00,,,0.01,Wunderground v.1.15,2013-12-02 16:15:00,
2013-12-02 11:25:00,45.3,44.2,29.68,SW,235,2.0,3.0,96,0.00,,,0.01,Wunderground v.1.15,2013-12-02 16:25:00,
2013-12-02 11:35:00,45.9,44.8,29.67,SW,235,0.0,1.0,96,0.00,,,0.01,Wunderground v.1.15,2013-12-02 16:35:00,
2013-12-02 11:46:00,46.5,45.1,29.67,SW,235,0.0,1.0,95,0.00,,,0.01,Wunderground v.1.15,2013-12-02 16:46:00,
2013-12-02 11:55:00,47.5,45.9,29.66,SW,235,1.0,3.0,94,0.00,,,0.01,Wunderground v.1.15,2013-12-02 16:55:00,
2013-12-02 12:00:00,47.2,45.3,29.66,WSW,237,2.0,2.0,93,0.00,,,0.01,Wunderground v.1.15,2013-12-02 17:00:00,
2013-12-02 12:10:00,46.9,45.3,29.66,WSW,237,3.0,3.0,94,0.00,,,0.01,Wunderground v.1.15,2013-12-02 17:10:00,
2013-12-02 12:15:00,46.9,45.3,29.65,WSW,237,2.0,3.0,94,0.00,,,0.01,Wunderground v.1.15,2013-12-02 17:15:00,
2013-12-02 12:20:00,47.0,45.6,29.65,WSW,237,1.0,3.0,95,0.00,,,0.01,Wunderground v.1.15,2013-12-02 17:20:00,
2013-12-02 12:30:00,47.1,45.5,29.65,SW,234,3.0,3.0,94,0.00,,,0.01,Wunderground v.1.15,2013-12-02 17:30:00,
2013-12-02 12:40:00,46.9,45.3,29.65,SW,234,2.0,2.0,94,0.00,,,0.01,Wunderground v.1.15,2013-12-02 17:40:00,
2013-12-02 12:50:00,47.0,45.6,29.64,SW,234,0.0,2.0,95,0.00,,,0.01,Wunderground v.1.15,2013-12-02 17:50:00,
2013-12-02 13:00:00,47.2,45.6,29.64,SW,234,0.0,0.0,94,0.00,,,0.01,Wunderground v.1.15,2013-12-02 18:00:00,
2013-12-02 13:10:00,47.7,46.3,29.64,SW,234,2.0,3.0,95,0.00,,,0.01,Wunderground v.1.15,2013-12-02 18:10:00,
2013-12-02 13:16:00,47.8,46.2,29.64,WSW,241,3.0,4.0,94,0.00,,,0.01,Wunderground v.1.15,2013-12-02 18:16:00,
2013-12-02 13:25:00,47.5,45.9,29.63,WSW,238,4.0,5.0,94,0.00,,,0.01,Wunderground v.1.15,2013-12-02 18:25:00,
2013-12-02 13:31:00,47.5,46.1,29.63,WSW,239,3.0,3.0,95,0.00,,,0.01,Wunderground v.1.15,2013-12-02 18:31:00,
2013-12-02 13:40:00,47.4,46.0,29.63,WSW,239,1.0,1.0,95,0.00,,,0.01,Wunderground v.1.15,2013-12-02 18:40:00,
2013-12-02 13:45:00,47.4,45.8,29.62,WSW,239,1.0,1.0,94,0.00,,,0.01,Wunderground v.1.15,2013-12-02 18:45:00,
2013-12-02 13:55:00,47.1,45.5,29.62,WSW,243,3.0,4.0,94,0.00,,,0.01,Wunderground v.1.15,2013-12-02 18:55:00,
2013-12-02 14:00:00,47.2,45.8,29.62,WSW,243,3.0,3.0,95,0.00,,,0.01,Wunderground v.1.15,2013-12-02 19:00:00,
2013-12-02 14:05:00,47.4,46.3,29.61,WSW,243,2.0,3.0,96,0.00,,,0.01,Wunderground v.1.15,2013-12-02 19:05:00,
2013-12-02 14:15:00,47.5,46.1,29.61,WSW,243,1.0,1.0,95,0.00,,,0.01,Wunderground v.1.15,2013-12-02 19:15:00,
2013-12-02 14:25:00,47.5,46.1,29.61,WSW,243,2.0,4.0,95,0.00,,,0.01,Wunderground v.1.15,2013-12-02 19:25:00,
2013-12-02 14:31:00,47.6,46.2,29.61,WSW,244,2.0,2.0,95,0.00,,,0.01,Wunderground v.1.15,2013-12-02 19:31:00,
2013-12-02 14:40:00,47.6,46.2,29.61,WSW,245,3.0,4.0,95,0.00,,,0.01,Wunderground v.1.15,2013-12-02 19:40:00,
2013-12-02 14:50:00,47.5,46.1,29.60,SW,226,4.0,4.0,95,0.00,,,0.01,Wunderground v.1.15,2013-12-02 19:50:00,
2013-12-02 15:00:00,47.3,46.2,29.60,SW,226,3.0,3.0,96,0.00,,,0.01,Wunderground v.1.15,2013-12-02 20:00:00,
2013-12-02 15:10:00,47.1,46.0,29.60,SW,226,1.0,1.0,96,0.00,,,0.01,Wunderground v.1.15,2013-12-02 20:10:00,
2013-12-02 15:20:00,47.1,46.0,29.60,SW,226,1.0,1.0,96,0.00,,,0.01,Wunderground v.1.15,2013-12-02 20:20:00,
2013-12-02 15:25:00,47.4,46.6,29.60,SW,226,0.0,1.0,97,0.00,,,0.01,Wunderground v.1.15,2013-12-02 20:25:00,
2013-12-02 15:30:00,47.4,46.3,29.60,SW,226,1.0,4.0,96,0.00,,,0.01,Wunderground v.1.15,2013-12-02 20:30:00,
2013-12-02 15:40:00,47.6,46.5,29.60,SW,226,4.0,4.0,96,0.00,,,0.01,Wunderground v.1.15,2013-12-02 20:40:00,
2013-12-02 15:46:00,47.6,46.5,29.60,SW,226,2.0,4.0,96,0.00,,,0.01,Wunderground v.1.15,2013-12-02 20:46:00,
2013-12-02 15:55:00,47.6,46.5,29.60,SW,226,1.0,1.0,96,0.00,,,0.01,Wunderground v.1.15,2013-12-02 20:55:00,
2013-12-02 16:00:00,47.6,46.5,29.60,SW,226,1.0,1.0,96,0.00,,,0.01,Wunderground v.1.15,2013-12-02 21:00:00,
2013-12-02 16:05:00,47.4,46.3,29.60,SW,226,1.0,1.0,96,0.00,,,0.01,Wunderground v.1.15,2013-12-02 21:05:00,
2013-12-02 16:10:00,47.4,46.3,29.60,SW,226,0.0,2.0,96,0.00,,,0.01,Wunderground v.1.15,2013-12-02 21:10:00,
2013-12-02 16:20:00,47.4,46.3,29.60,SW,226,1.0,1.0,96,0.00,,,0.01,Wunderground v.1.15,2013-12-02 21:20:00,
2013-12-02 16:25:00,47.4,46.3,29.60,SW,226,1.0,2.0,96,0.00,,,0.01,Wunderground v.1.15,2013-12-02 21:25:00,
2013-12-02 16:35:00,47.5,46.4,29.60,SW,226,1.0,1.0,96,0.00,,,0.01,Wunderground v.1.15,2013-12-02 21:35:00,
2013-12-02 16:45:00,47.5,46.4,29.60,SW,227,2.0,3.0,96,0.00,,,0.01,Wunderground v.1.15,2013-12-02 21:45:00,
2013-12-02 16:55:00,47.4,46.3,29.60,SW,232,3.0,5.0,96,0.00,,,0.01,Wunderground v.1.15,2013-12-02 21:55:00,
2013-12-02 17:01:00,47.4,46.3,29.60,SW,232,2.0,2.0,96,0.00,,,0.01,Wunderground v.1.15,2013-12-02 22:01:00,
2013-12-02 17:10:00,47.4,46.3,29.60,SW,232,0.0,0.0,96,0.00,,,0.01,Wunderground v.1.15,2013-12-02 22:10:00,
2013-12-02 17:15:00,47.3,46.2,29.60,SW,232,0.0,0.0,96,0.00,,,0.01,Wunderground v.1.15,2013-12-02 22:15:00,
2013-12-02 17:20:00,47.3,46.2,29.60,SW,232,0.0,0.0,96,0.00,,,0.01,Wunderground v.1.15,2013-12-02 22:20:00,
2013-12-02 17:30:00,47.2,46.1,29.60,SW,232,0.0,0.0,96,0.00,,,0.01,Wunderground v.1.15,2013-12-02 22:30:00,
2013-12-02 17:40:00,47.2,46.1,29.60,SW,232,1.0,1.0,96,0.00,,,0.01,Wunderground v.1.15,2013-12-02 22:40:00,
2013-12-02 17:45:00,47.2,46.1,29.60,SW,232,1.0,1.0,96,0.00,,,0.01,Wunderground v.1.15,2013-12-02 22:45:00,
2013-12-02 17:55:00,47.1,46.0,29.60,SW,232,0.0,3.0,96,0.00,,,0.01,Wunderground v.1.15,2013-12-02 22:55:00,
2013-12-02 18:00:00,47.1,46.0,29.60,SW,232,0.0,0.0,96,0.00,,,0.01,Wunderground v.1.15,2013-12-02 23:00:00,
2013-12-02 18:10:00,47.0,45.9,29.61,SW,232,0.0,2.0,96,0.00,,,0.01,Wunderground v.1.15,2013-12-02 23:10:00,
2013-12-02 18:15:00,47.0,45.9,29.61,SW,232,1.0,3.0,96,0.00,,,0.01,Wunderground v.1.15,2013-12-02 23:15:00,
2013-12-02 18:25:00,47.0,46.2,29.61,SW,232,2.0,3.0,97,0.00,,,0.01,Wunderground v.1.15,2013-12-02 23:25:00,
2013-12-02 18:30:00,47.0,46.2,29.62,SW,232,2.0,2.0,97,0.00,,,0.01,Wunderground v.1.15,2013-12-02 23:30:00,
2013-12-02 18:40:00,47.0,46.2,29.62,SW,232,0.0,0.0,97,0.00,,,0.01,Wunderground v.1.15,2013-12-02 23:40:00,
2013-12-02 18:45:00,47.0,46.2,29.62,SW,232,0.0,0.0,97,0.00,,,0.01,Wunderground v.1.15,2013-12-02 23:45:00,
2013-12-02 18:50:00,47.0,46.2,29.61,SW,232,0.0,2.0,97,0.00,,,0.01,Wunderground v.1.15,2013-12-02 23:50:00,
2013-12-02 19:00:00,46.9,46.1,29.61,SW,230,1.0,1.0,97,0.00,,,0.01,Wunderground v.1.15,2013-12-03 00:00:00,
2013-12-02 19:10:00,46.9,46.1,29.62,SW,230,0.0,0.0,97,0.00,,,0.01,Wunderground v.1.15,2013-12-03 00:10:00,
2013-12-02 19:15:00,46.9,46.1,29.62,SW,230,1.0,2.0,97,0.00,,,0.01,Wunderground v.1.15,2013-12-03 00:15:00,
2013-12-02 19:25:00,46.9,46.1,29.62,SW,231,0.0,3.0,97,0.00,,,0.01,Wunderground v.1.15,2013-12-03 00:25:00,
2013-12-02 19:30:00,46.9,46.1,29.62,SW,231,1.0,1.0,97,0.00,,,0.01,Wunderground v.1.15,2013-12-03 00:30:00,
2013-12-02 19:35:00,46.9,46.1,29.62,SW,230,1.0,1.0,97,0.00,,,0.01,Wunderground v.1.15,2013-12-03 00:35:00,
2013-12-02 19:45:00,46.9,46.1,29.62,SW,230,1.0,1.0,97,0.00,,,0.01,Wunderground v.1.15,2013-12-03 00:45:00,
2013-12-02 19:55:00,46.9,46.4,29.62,SW,230,0.0,1.0,98,0.00,,,0.01,Wunderground v.1.15,2013-12-03 00:55:00,
2013-12-02 20:00:00,46.9,46.4,29.62,SW,230,0.0,0.0,98,0.00,,,0.01,Wunderground v.1.15,2013-12-03 01:00:00,
2013-12-02 20:10:00,46.9,46.4,29.62,SW,230,1.0,1.0,98,0.00,,,0.01,Wunderground v.1.15,2013-12-03 01:10:00,
2013-12-02 20:16:00,46.9,46.4,29.62,SW,230,1.0,1.0,98,0.00,,,0.01,Wunderground v.1.15,2013-12-03 01:16:00,
2013-12-02 20:25:00,46.9,46.4,29.62,SW,230,0.0,0.0,98,0.00,,,0.01,Wunderground v.1.15,2013-12-03 01:25:00,
2013-12-02 20:30:00,46.9,46.4,29.62,SW,230,0.0,0.0,98,0.00,,,0.01,Wunderground v.1.15,2013-12-03 01:30:00,
2013-12-02 20:40:00,46.9,46.4,29.63,SW,230,0.0,0.0,98,0.00,,,0.01,Wunderground v.1.15,2013-12-03 01:40:00,
2013-12-02 20:45:00,46.9,46.4,29.63,SW,230,0.0,0.0,98,0.00,,,0.01,Wunderground v.1.15,2013-12-03 01:45:00,
2013-12-02 20:55:00,46.8,46.3,29.63,SW,230,0.0,0.0,98,0.00,,,0.01,Wunderground v.1.15,2013-12-03 01:55:00,
2013-12-02 21:01:00,46.8,46.3,29.63,SW,230,0.0,0.0,98,0.00,,,0.01,Wunderground v.1.15,2013-12-03 02:01:00,
2013-12-02 21:10:00,46.9,46.4,29.63,SW,230,0.0,0.0,98,0.00,,,0.01,Wunderground v.1.15,2013-12-03 02:10:00,
2013-12-02 21:16:00,46.9,46.4,29.63,SW,230,0.0,0.0,98,0.00,,,0.01,Wunderground v.1.15,2013-12-03 02:16:00,
2013-12-02 21:25:00,46.9,46.4,29.63,SW,230,0.0,1.0,98,0.00,,,0.01,Wunderground v.1.15,2013-12-03 02:25:00,
2013-12-02 21:31:00,46.9,46.4,29.63,SW,230,0.0,0.0,98,0.00,,,0.01,Wunderground v.1.15,2013-12-03 02:31:00,
2013-12-02 21:40:00,46.9,46.4,29.62,SW,230,0.0,0.0,98,0.00,,,0.01,Wunderground v.1.15,2013-12-03 02:40:00,
2013-12-02 21:45:00,46.9,46.4,29.62,SW,230,0.0,0.0,98,0.00,,,0.02,Wunderground v.1.15,2013-12-03 02:45:00,
2013-12-02 21:55:00,46.9,46.4,29.63,SW,230,0.0,0.0,98,0.00,,,0.02,Wunderground v.1.15,2013-12-03 02:55:00,
2013-12-02 22:05:00,46.8,46.3,29.63,SW,230,0.0,0.0,98,0.00,,,0.02,Wunderground v.1.15,2013-12-03 03:05:00,
2013-12-02 22:10:00,46.8,46.3,29.63,SW,230,0.0,0.0,98,0.00,,,0.02,Wunderground v.1.15,2013-12-03 03:10:00,
2013-12-02 22:20:00,46.8,46.3,29.64,SW,230,0.0,0.0,98,0.00,,,0.02,Wunderground v.1.15,2013-12-03 03:20:00,
2013-12-02 22:25:00,46.8,46.3,29.64,SW,230,0.0,0.0,98,0.00,,,0.02,Wunderground v.1.15,2013-12-03 03:25:00,
2013-12-02 22:30:00,46.8,46.3,29.64,SW,230,0.0,0.0,98,0.00,,,0.02,Wunderground v.1.15,2013-12-03 03:30:00,
2013-12-02 22:35:00,46.8,46.3,29.64,SW,230,0.0,0.0,98,0.00,,,0.02,Wunderground v.1.15,2013-12-03 03:35:00,
2013-12-02 22:45:00,46.8,46.3,29.64,SW,230,0.0,0.0,98,0.00,,,0.02,Wunderground v.1.15,2013-12-03 03:45:00,
2013-12-02 22:50:00,46.8,46.3,29.64,SW,230,0.0,0.0,98,0.00,,,0.02,Wunderground v.1.15,2013-12-03 03:50:00,
2013-12-02 22:55:00,46.8,46.3,29.64,SW,230,0.0,0.0,98,0.00,,,0.02,Wunderground v.1.15,2013-12-03 03:55:00,
2013-12-02 23:05:00,46.9,46.4,29.64,SW,230,0.0,0.0,98,0.00,,,0.02,Wunderground v.1.15,2013-12-03 04:05:00,
2013-12-02 23:10:00,46.9,46.4,29.64,SW,230,0.0,0.0,98,0.00,,,0.02,Wunderground v.1.15,2013-12-03 04:10:00,
2013-12-02 23:15:00,46.8,46.3,29.64,SW,230,0.0,0.0,98,0.00,,,0.02,Wunderground v.1.15,2013-12-03 04:15:00,
2013-12-02 23:25:00,46.8,46.3,29.63,SW,230,0.0,1.0,98,0.00,,,0.02,Wunderground v.1.15,2013-12-03 04:25:00,
2013-12-02 23:30:00,46.8,46.3,29.63,SW,230,0.0,0.0,98,0.00,,,0.02,Wunderground v.1.15,2013-12-03 04:30:00,
2013-12-02 23:35:00,46.9,46.4,29.63,SW,230,0.0,0.0,98,0.00,,,0.03,Wunderground v.1.15,2013-12-03 04:35:00,
2013-12-02 23:40:00,46.9,46.4,29.63,SW,230,0.0,0.0,98,0.00,,,0.03,Wunderground v.1.15,2013-12-03 04:40:00,
2013-12-02 23:45:00,46.9,46.4,29.63,SW,230,0.0,0.0,98,0.00,,,0.03,Wunderground v.1.15,2013-12-03 04:45:00,
2013-12-02 23:50:00,46.9,46.4,29.63,SW,230,0.0,0.0,98,0.00,,,0.03,Wunderground v.1.15,2013-12-03 04:50:00,
2013-12-02 23:55:00,46.9,46.4,29.64,SW,230,0.0,0.0,98,0.00,,,0.03,Wunderground v.1.15,2013-12-03 04:55:00,